This is the latest recevied weather packets stored in our database for station/object KQ4WWD. If no packets are shown the sender has not sent any weather packets the latest 10 day(s).
| Time | Temp. | Humidity | Pressure | Rain* | Wind** | Luminosity | Snow |
|---|---|---|---|---|---|---|---|
| 1777491686 | 31.11° C | 55% | 1012.5 hPa | 0 mm | - | 238 W/m² | - |
| 1777491383 | 32.22° C | 54% | 1012.5 hPa | 0 mm | - | 175 W/m² | - |
| 1777491081 | 32.78° C | 52% | 1012.7 hPa | 0 mm | - | 707 W/m² | - |
| 1777490776 | 31.67° C | 54% | 1013.3 hPa | 0 mm | - | 711 W/m² | - |
| 1777490473 | 32.22° C | 54% | 1013 hPa | 0 mm | - | 730 W/m² | - |
| 1777490169 | 31.67° C | 55% | 1013.2 hPa | 0 mm | - | 702 W/m² | - |
| 1777489866 | 32.22° C | 53% | 1013.4 hPa | 0 mm | - | 716 W/m² | - |
| 1777489563 | 31.11° C | 55% | 1013.4 hPa | 0 mm | - | 731 W/m² | - |
| 1777489260 | 32.22° C | 54% | 1013.5 hPa | 0 mm | - | 741 W/m² | - |
| 1777488957 | 32.22° C | 54% | 1013.7 hPa | 0 mm | - | 774 W/m² | - |
| 1777488654 | 30.56° C | 57% | 1013.6 hPa | 0 mm | - | 770 W/m² | - |
| 1777488352 | 30.56° C | 58% | 1013.7 hPa | 0 mm | - | 160 W/m² | - |
| 1777488050 | 30° C | 59% | 1013.8 hPa | 0 mm | - | 747 W/m² | - |
| 1777487747 | 30.56° C | 58% | 1014.2 hPa | 0 mm | - | 172 W/m² | - |
| 1777487445 | 31.67° C | 55% | 1014.4 hPa | 0 mm | - | 771 W/m² | - |
| 1777487143 | 31.11° C | 57% | 1014.2 hPa | 0 mm | - | 752 W/m² | - |
| 1777486838 | 31.67° C | 55% | 1014.3 hPa | 0 mm | - | 209 W/m² | - |
| 1777486536 | 31.67° C | 54% | 1014.4 hPa | 0 mm | - | 748 W/m² | - |
| 1777486233 | 31.67° C | 54% | 1014.3 hPa | 0 mm | - | 757 W/m² | - |
| 1777485931 | 31.67° C | 56% | 1014.6 hPa | 0 mm | - | 744 W/m² | - |
| 1777485626 | 30.56° C | 57% | 1014.6 hPa | 0 mm | - | 740 W/m² | - |
| 1777485321 | 30.56° C | 57% | 1015 hPa | 0 mm | - | 773 W/m² | - |
| 1777485018 | 31.11° C | 56% | 1014.9 hPa | 0 mm | - | 226 W/m² | - |
| 1777484716 | 30° C | 58% | 1015.2 hPa | 0 mm | - | 778 W/m² | - |
| 1777484412 | 30.56° C | 58% | 1015.4 hPa | 0 mm | - | 195 W/m² | - |
* Rain latest hour (hover to see other rain measurements)
** Current wind speed in m/s (hover to see current wind gust speed)